createdAt,value
2022-10-13T00:00:43.343Z,14.18
2022-10-13T00:03:10.683Z,15.20
2022-10-13T00:05:43.122Z,16.02
2022-10-13T00:08:12.598Z,14.15
2022-10-13T00:10:45.133Z,15.70
2022-10-13T00:13:16.643Z,14.80
2022-10-13T00:15:45.391Z,12.18
2022-10-13T00:18:13.376Z,13.27
2022-10-13T00:20:50.874Z,17.17
2022-10-13T00:23:18.790Z,12.77
2022-10-13T00:25:48.257Z,13.38
2022-10-13T00:28:18.510Z,13.45
2022-10-13T00:30:46.565Z,13.23
2022-10-13T00:33:14.438Z,12.57
2022-10-13T00:35:46.889Z,12.90
2022-10-13T00:38:14.761Z,10.80
2022-10-13T00:40:53.041Z,13.38
2022-10-13T00:43:28.070Z,15.07
2022-10-13T00:45:55.145Z,13.57
2022-10-13T00:48:25.203Z,13.10
2022-10-13T00:50:53.135Z,18.23
2022-10-13T00:53:23.573Z,15.18
2022-10-13T00:55:51.732Z,14.13
2022-10-13T00:58:19.788Z,19.40
2022-10-13T01:00:49.373Z,11.87
2022-10-13T01:03:18.684Z,13.98
2022-10-13T01:05:45.997Z,12.88
2022-10-13T01:08:15.010Z,15.05
2022-10-13T01:10:55.783Z,14.00
2022-10-13T01:13:25.881Z,16.67
2022-10-13T01:16:17.209Z,15.25
2022-10-13T01:18:51.436Z,16.13
2022-10-13T01:21:36.573Z,14.82
2022-10-13T01:24:34.652Z,14.98
2022-10-13T01:27:07.761Z,15.47
2022-10-13T01:30:04.882Z,14.02
2022-10-13T01:32:53.213Z,17.90
2022-10-13T01:35:38.024Z,12.65
2022-10-13T01:38:25.561Z,13.75
2022-10-13T01:41:02.598Z,15.37
2022-10-13T01:43:37.572Z,15.52
2022-10-13T01:46:12.534Z,19.08
2022-10-13T01:48:40.816Z,14.50
2022-10-13T01:51:10.507Z,14.63
2022-10-13T01:53:38.024Z,16.40
2022-10-13T01:56:05.504Z,17.42
2022-10-13T01:58:34.518Z,18.20
2022-10-13T02:01:20.451Z,15.57
2022-10-13T02:04:03.132Z,14.02
2022-10-13T02:06:39.990Z,16.53
2022-10-13T02:09:27.351Z,18.90
2022-10-13T02:11:59.763Z,13.48
2022-10-13T02:14:29.975Z,14.77
2022-10-13T02:17:01.301Z,16.10
2022-10-13T02:19:28.823Z,15.47
2022-10-13T02:21:57.559Z,12.73
2022-10-13T02:24:25.015Z,14.40
2022-10-13T02:26:55.857Z,14.63
2022-10-13T02:29:23.156Z,16.23
2022-10-13T02:31:50.345Z,12.40
2022-10-13T02:34:17.466Z,13.98
2022-10-13T02:36:44.512Z,16.25
2022-10-13T02:39:11.952Z,12.85
2022-10-13T02:41:39.371Z,15.70
2022-10-13T02:44:06.695Z,14.67
2022-10-13T02:46:33.925Z,14.35
2022-10-13T02:49:00.979Z,16.88
2022-10-13T02:51:28.095Z,13.82
2022-10-13T02:53:55.232Z,16.30
2022-10-13T02:56:22.268Z,13.13
2022-10-13T02:58:49.437Z,16.63
2022-10-13T03:01:16.501Z,15.35
2022-10-13T03:03:43.605Z,11.82
2022-10-13T03:06:10.796Z,16.40
2022-10-13T03:08:39.197Z,16.40
2022-10-13T03:11:06.561Z,15.27
2022-10-13T03:13:33.707Z,13.27
2022-10-13T03:16:00.842Z,13.07
2022-10-13T03:18:28.018Z,12.70
2022-10-13T03:21:03.618Z,17.87
2022-10-13T03:23:34.047Z,13.98
2022-10-13T03:26:01.713Z,12.82
2022-10-13T03:28:28.933Z,15.30
2022-10-13T03:31:07.675Z,11.38
2022-10-13T03:33:35.219Z,14.50
2022-10-13T03:36:04.473Z,12.95
2022-10-13T03:38:33.674Z,15.88
2022-10-13T03:41:21.149Z,13.02
2022-10-13T03:43:48.252Z,14.00
2022-10-13T03:46:17.369Z,20.10
2022-10-13T03:48:44.990Z,16.88
2022-10-13T03:51:14.830Z,15.00
2022-10-13T03:53:41.997Z,16.00
2022-10-13T03:56:14.145Z,15.50
2022-10-13T03:58:41.401Z,21.93
2022-10-13T04:01:08.465Z,12.68
2022-10-13T04:03:35.701Z,15.95
2022-10-13T04:06:04.359Z,15.10
2022-10-13T04:08:33.227Z,16.33
2022-10-13T04:11:01.634Z,13.87
2022-10-13T04:13:28.899Z,19.83
2022-10-13T04:15:56.132Z,15.10
2022-10-13T04:18:23.223Z,13.45
2022-10-13T04:20:50.544Z,14.15
2022-10-13T04:23:17.608Z,13.00
2022-10-13T04:25:44.852Z,14.20
2022-10-13T04:28:12.644Z,14.88
2022-10-13T04:30:39.728Z,16.38
2022-10-13T04:33:07.288Z,14.65
2022-10-13T04:35:34.577Z,15.57
2022-10-13T04:38:01.690Z,16.42
2022-10-13T04:40:28.723Z,14.23
2022-10-13T04:42:55.997Z,16.55
2022-10-13T04:45:23.138Z,15.23
2022-10-13T04:47:50.657Z,17.30
2022-10-13T04:50:17.929Z,17.92
2022-10-13T04:52:45.076Z,16.77
2022-10-13T04:55:12.176Z,17.52
2022-10-13T04:57:39.279Z,15.95
2022-10-13T05:00:07.303Z,18.60
2022-10-13T05:02:37.741Z,17.15
2022-10-13T05:05:05.444Z,12.93
2022-10-13T05:07:32.555Z,16.17
2022-10-13T05:09:59.743Z,13.80
2022-10-13T05:12:26.888Z,15.63
2022-10-13T05:14:54.103Z,14.45
2022-10-13T05:17:21.151Z,18.00
2022-10-13T05:19:49.490Z,17.63
2022-10-13T05:22:17.060Z,14.48
2022-10-13T05:24:44.683Z,15.13
2022-10-13T05:27:13.181Z,16.27
2022-10-13T05:29:40.634Z,15.27
2022-10-13T05:32:08.281Z,13.68
2022-10-13T05:34:35.421Z,13.23
2022-10-13T05:37:02.645Z,20.77
2022-10-13T05:39:29.779Z,17.10
2022-10-13T05:41:56.938Z,19.02
2022-10-13T05:44:24.629Z,14.80
2022-10-13T05:46:53.130Z,15.10
2022-10-13T05:49:20.274Z,15.17
2022-10-13T05:51:49.884Z,17.15
2022-10-13T05:54:24.391Z,15.45
2022-10-13T05:56:57.824Z,13.90
2022-10-13T05:59:27.252Z,13.32
2022-10-13T06:01:54.631Z,14.57
2022-10-13T06:04:28.683Z,15.38
2022-10-13T06:06:55.827Z,15.38
2022-10-13T06:09:23.163Z,19.63
2022-10-13T06:11:50.208Z,21.48
2022-10-13T06:14:17.243Z,16.60
2022-10-13T06:16:44.279Z,16.85
2022-10-13T06:19:11.526Z,17.30
2022-10-13T06:21:38.637Z,15.48
2022-10-13T06:24:06.050Z,17.13
2022-10-13T06:26:33.105Z,14.60
2022-10-13T06:29:00.446Z,20.77
2022-10-13T06:31:27.675Z,17.52
2022-10-13T06:33:54.913Z,19.35
2022-10-13T06:36:22.486Z,19.02
2022-10-13T06:38:49.626Z,23.40
2022-10-13T06:41:16.722Z,20.73
2022-10-13T06:43:44.030Z,20.17
2022-10-13T06:46:12.129Z,20.20
2022-10-13T06:48:39.390Z,20.13
2022-10-13T06:51:09.022Z,17.50
2022-10-13T06:53:36.691Z,17.55
2022-10-13T06:56:06.269Z,15.95
2022-10-13T06:58:34.742Z,17.83
2022-10-13T07:01:02.114Z,28.83
2022-10-13T07:03:29.260Z,20.87
2022-10-13T07:06:04.281Z,28.15
2022-10-13T07:08:32.495Z,24.58
2022-10-13T07:10:59.775Z,24.58
2022-10-13T07:13:27.358Z,18.75
2022-10-13T07:15:54.670Z,22.57
2022-10-13T07:18:21.727Z,18.80
2022-10-13T07:20:48.999Z,23.08
2022-10-13T07:23:16.080Z,24.95
2022-10-13T07:25:43.173Z,19.85
2022-10-13T07:28:10.276Z,20.07
2022-10-13T07:30:39.432Z,19.13
2022-10-13T07:33:06.664Z,21.50
2022-10-13T07:35:33.813Z,21.73
2022-10-13T07:38:00.846Z,21.73
2022-10-13T07:40:27.923Z,28.10
2022-10-13T07:42:56.682Z,27.17
2022-10-13T07:45:23.756Z,23.88
2022-10-13T07:47:51.156Z,26.33
2022-10-13T07:50:18.307Z,24.25
2022-10-13T07:52:46.092Z,24.93
2022-10-13T07:55:13.178Z,21.52
2022-10-13T07:57:40.431Z,25.33
2022-10-13T08:00:08.498Z,25.77
2022-10-13T08:02:35.601Z,26.30
2022-10-13T08:05:03.669Z,25.60
2022-10-13T08:07:30.707Z,25.58
2022-10-13T08:09:58.150Z,26.75
2022-10-13T08:12:25.249Z,20.77
2022-10-13T08:14:52.305Z,23.83
2022-10-13T08:17:19.578Z,25.27
2022-10-13T08:19:47.197Z,20.42
2022-10-13T08:22:14.392Z,31.20
2022-10-13T08:24:41.582Z,23.58
2022-10-13T08:27:20.049Z,21.48
2022-10-13T08:29:47.326Z,22.07
2022-10-13T08:32:14.397Z,23.27
2022-10-13T08:34:41.663Z,19.38
2022-10-13T08:37:14.636Z,17.35
2022-10-13T08:39:41.695Z,24.63
2022-10-13T08:42:18.597Z,16.67
2022-10-13T08:45:21.860Z,14.82
2022-10-13T08:47:44.529Z,17.35
2022-10-13T08:50:15.721Z,16.80
2022-10-13T08:53:05.612Z,12.95
2022-10-13T08:55:41.770Z,11.83
2022-10-13T08:58:15.084Z,15.27
2022-10-13T09:00:42.511Z,17.67
2022-10-13T09:03:28.003Z,15.40
2022-10-13T09:06:10.393Z,15.32
2022-10-13T09:08:44.851Z,17.23
2022-10-13T09:11:13.118Z,14.35
2022-10-13T09:13:40.504Z,16.83
2022-10-13T09:16:08.112Z,14.07
2022-10-13T09:18:35.654Z,19.00
2022-10-13T09:21:20.276Z,15.80
2022-10-13T09:23:54.182Z,11.93
2022-10-13T09:26:24.099Z,11.90
2022-10-13T09:28:51.883Z,12.05
2022-10-13T09:31:24.776Z,11.25
2022-10-13T09:33:59.359Z,12.97
2022-10-13T09:36:26.540Z,11.75
2022-10-13T09:39:11.759Z,11.20
2022-10-13T09:41:39.939Z,11.80
2022-10-13T09:44:12.754Z,10.52
2022-10-13T09:46:50.720Z,12.93
2022-10-13T09:49:39.578Z,15.95
2022-10-13T09:52:07.040Z,12.25
2022-10-13T09:54:39.015Z,11.18
2022-10-13T09:57:14.326Z,12.75
2022-10-13T09:59:46.314Z,15.40
2022-10-13T10:02:34.130Z,15.30
2022-10-13T10:05:07.105Z,12.50
2022-10-13T10:07:34.301Z,11.77
2022-10-13T10:10:06.651Z,10.45
2022-10-13T10:12:36.957Z,13.57
2022-10-13T10:15:16.967Z,10.18
2022-10-13T10:17:51.998Z,14.80
2022-10-13T10:20:37.651Z,13.15
2022-10-13T10:23:06.597Z,13.38
2022-10-13T10:25:47.293Z,12.27
2022-10-13T10:28:25.294Z,13.98
2022-10-13T10:31:02.905Z,11.43
2022-10-13T10:33:55.532Z,13.60
2022-10-13T10:36:29.686Z,11.35
2022-10-13T10:39:03.663Z,14.57
2022-10-13T10:41:39.013Z,14.55
2022-10-13T10:44:31.474Z,9.13
2022-10-13T10:47:05.708Z,10.43
2022-10-13T10:49:35.304Z,16.80
2022-10-13T10:52:19.591Z,13.00
2022-10-13T10:54:56.682Z,10.43
2022-10-13T10:57:35.798Z,11.75
2022-10-13T11:00:06.560Z,11.63
2022-10-13T11:02:37.318Z,11.88
2022-10-13T11:05:06.416Z,17.23
2022-10-13T11:07:33.699Z,10.80
2022-10-13T11:10:14.224Z,12.85
2022-10-13T11:12:53.756Z,13.85
2022-10-13T11:15:25.596Z,14.05
2022-10-13T11:17:52.897Z,15.70
2022-10-13T11:20:25.125Z,14.90
2022-10-13T11:22:58.094Z,14.35
2022-10-13T11:25:41.522Z,16.27
2022-10-13T11:28:20.734Z,13.95
2022-10-13T11:30:50.393Z,14.23
2022-10-13T11:33:32.651Z,14.63
2022-10-13T11:36:39.415Z,16.45
2022-10-13T11:39:28.109Z,15.45
2022-10-13T11:42:20.322Z,13.70
2022-10-13T11:45:12.076Z,11.87
2022-10-13T11:48:21.300Z,17.17
2022-10-13T11:50:58.704Z,11.48
2022-10-13T11:53:35.036Z,12.18
2022-10-13T11:56:02.192Z,12.27
2022-10-13T11:58:31.175Z,12.33
2022-10-13T12:01:00.506Z,18.75
2022-10-13T12:03:27.757Z,15.57
2022-10-13T12:05:59.144Z,12.57
2022-10-13T12:08:27.509Z,16.25
2022-10-13T12:10:57.316Z,11.37
2022-10-13T12:13:27.703Z,14.65
2022-10-13T12:16:13.559Z,14.48
2022-10-13T12:18:41.123Z,13.35
2022-10-13T12:21:17.910Z,12.43
2022-10-13T12:23:45.226Z,12.00
2022-10-13T12:26:16.915Z,13.25
2022-10-13T12:28:49.213Z,13.77
2022-10-13T12:31:22.429Z,12.77
2022-10-13T12:34:00.974Z,18.33
2022-10-13T12:36:31.099Z,14.30
2022-10-13T12:39:04.408Z,14.82
2022-10-13T12:41:41.255Z,20.65
2022-10-13T12:44:13.552Z,13.85
2022-10-13T12:46:49.023Z,14.85
2022-10-13T12:49:30.309Z,13.30
2022-10-13T12:52:09.609Z,13.43
2022-10-13T12:54:39.087Z,14.27
2022-10-13T12:57:17.878Z,15.18
2022-10-13T12:59:45.015Z,16.50
2022-10-13T13:02:26.332Z,14.03
2022-10-13T13:04:53.929Z,16.38
2022-10-13T13:07:35.583Z,17.42
2022-10-13T13:10:18.797Z,15.15
2022-10-13T13:12:47.676Z,15.50
2022-10-13T13:15:27.243Z,16.10
2022-10-13T13:17:59.042Z,14.45
2022-10-13T13:20:32.189Z,14.77
2022-10-13T13:22:59.875Z,13.27
2022-10-13T13:25:27.155Z,16.63
2022-10-13T13:27:54.396Z,15.10
2022-10-13T13:30:23.631Z,16.75
2022-10-13T13:32:51.146Z,12.82
2022-10-13T13:35:18.601Z,14.35
2022-10-13T13:37:48.881Z,14.60
2022-10-13T13:40:18.667Z,12.47
2022-10-13T13:42:45.787Z,16.38
2022-10-13T13:45:13.978Z,13.45
2022-10-13T13:47:41.092Z,15.00
2022-10-13T13:50:17.075Z,12.32
2022-10-13T13:52:44.250Z,15.03
2022-10-13T13:55:11.391Z,13.23
2022-10-13T13:57:38.420Z,11.90
2022-10-13T14:00:06.254Z,17.70
2022-10-13T14:02:33.339Z,15.30
2022-10-13T14:05:00.548Z,11.23
2022-10-13T14:07:27.610Z,12.95
2022-10-13T14:09:57.859Z,14.15
2022-10-13T14:12:32.506Z,14.48
2022-10-13T14:14:59.827Z,13.18
2022-10-13T14:17:28.055Z,17.03
2022-10-13T14:19:56.406Z,14.88
2022-10-13T14:22:23.777Z,15.07
2022-10-13T14:24:50.945Z,12.15
2022-10-13T14:27:18.129Z,13.23
2022-10-13T14:29:45.228Z,18.13
2022-10-13T14:32:12.634Z,15.88
2022-10-13T14:34:39.704Z,18.45
2022-10-13T14:37:06.809Z,19.55
2022-10-13T14:39:33.918Z,18.98
2022-10-13T14:42:01.201Z,17.77
2022-10-13T14:44:28.316Z,18.70
2022-10-13T14:46:55.553Z,18.25
2022-10-13T14:49:22.600Z,18.92
2022-10-13T14:51:49.752Z,20.00
2022-10-13T14:54:16.877Z,20.23
2022-10-13T14:56:44.785Z,17.58
2022-10-13T14:59:12.522Z,19.83
2022-10-13T15:01:41.550Z,15.73
2022-10-13T15:04:09.074Z,19.83
2022-10-13T15:06:39.147Z,15.07
2022-10-13T15:11:39.483Z,13.93
2022-10-13T15:14:07.467Z,17.45
2022-10-13T15:16:35.037Z,15.50
2022-10-13T15:19:02.727Z,15.87
2022-10-13T15:21:29.943Z,15.95
2022-10-13T15:23:57.133Z,15.60
2022-10-13T15:26:24.504Z,20.45
2022-10-13T15:28:53.098Z,15.18
2022-10-13T15:31:21.660Z,17.93
2022-10-13T15:33:51.781Z,16.27
2022-10-13T15:36:20.101Z,17.05
2022-10-13T15:38:47.236Z,13.88
2022-10-13T15:41:14.493Z,14.18
2022-10-13T15:43:41.608Z,15.33
2022-10-13T15:46:12.318Z,16.15
2022-10-13T15:48:39.516Z,14.63
2022-10-13T15:51:14.485Z,16.20
2022-10-13T15:53:41.587Z,14.75
2022-10-13T15:56:08.843Z,15.70
2022-10-13T15:58:36.064Z,18.33
2022-10-13T16:01:11.064Z,15.43
2022-10-13T16:03:38.574Z,15.85
2022-10-13T16:06:07.583Z,16.52
2022-10-13T16:08:39.507Z,18.43
2022-10-13T16:11:11.022Z,15.43
2022-10-13T16:13:38.824Z,15.48
2022-10-13T16:16:06.609Z,13.05
2022-10-13T16:18:36.075Z,15.63
2022-10-13T16:21:18.599Z,15.33
2022-10-13T16:23:46.977Z,17.40
2022-10-13T16:26:14.859Z,15.82
2022-10-13T16:28:42.057Z,16.65
2022-10-13T16:31:13.541Z,19.38
2022-10-13T16:33:44.566Z,15.80
2022-10-13T16:36:13.910Z,20.00
2022-10-13T16:38:42.022Z,19.48
2022-10-13T16:41:14.151Z,18.15
2022-10-13T16:43:42.149Z,16.10
2022-10-13T16:46:13.223Z,17.80
2022-10-13T16:48:41.219Z,14.45
2022-10-13T16:51:10.521Z,19.38
2022-10-13T16:53:38.675Z,16.95
2022-10-13T16:56:07.074Z,19.73
2022-10-13T16:58:34.576Z,15.50
2022-10-13T17:01:06.185Z,18.23
2022-10-13T17:03:33.298Z,18.60
2022-10-13T17:06:00.625Z,16.17
2022-10-13T17:08:27.903Z,17.38
2022-10-13T17:10:58.215Z,21.70
2022-10-13T17:13:25.546Z,17.67
2022-10-13T17:15:54.186Z,17.55
2022-10-13T17:18:21.498Z,17.90
2022-10-13T17:21:04.243Z,17.77
2022-10-13T17:23:31.903Z,19.20
2022-10-13T17:26:04.336Z,17.38
2022-10-13T17:28:32.110Z,15.90
2022-10-13T17:31:01.098Z,20.98
2022-10-13T17:33:29.259Z,16.00
2022-10-13T17:36:00.988Z,16.23
2022-10-13T17:38:28.595Z,18.70
2022-10-13T17:41:00.330Z,18.20
2022-10-13T17:43:27.669Z,15.02
2022-10-13T17:46:07.443Z,17.83
2022-10-13T17:48:42.777Z,20.90
2022-10-13T17:51:12.105Z,16.25
2022-10-13T17:53:40.120Z,16.77
2022-10-13T17:56:11.634Z,15.13
2022-10-13T17:58:40.026Z,17.85
2022-10-13T18:01:13.545Z,16.20
2022-10-13T18:03:45.043Z,17.42
2022-10-13T18:06:12.292Z,16.52
2022-10-13T18:08:39.531Z,15.60
2022-10-13T18:11:15.698Z,18.50
2022-10-13T18:13:44.527Z,16.90
2022-10-13T18:16:22.539Z,23.20
2022-10-13T18:18:51.217Z,16.30
2022-10-13T18:21:22.388Z,17.77
2022-10-13T18:23:49.555Z,18.92
2022-10-13T18:26:18.862Z,18.90
2022-10-13T18:28:47.257Z,22.63
2022-10-13T18:31:17.072Z,16.90
2022-10-13T18:33:44.363Z,20.42
2022-10-13T18:36:20.062Z,18.65
2022-10-13T18:38:47.558Z,21.50
2022-10-13T18:41:16.129Z,16.45
2022-10-13T18:43:43.208Z,19.23
2022-10-13T18:46:10.312Z,20.45
2022-10-13T18:48:37.426Z,18.27
2022-10-13T18:51:06.751Z,17.53
2022-10-13T18:53:38.447Z,18.42
2022-10-13T18:56:08.398Z,15.20
2022-10-13T18:58:35.661Z,19.30
2022-10-13T19:01:05.980Z,16.48
2022-10-13T19:03:35.988Z,20.53
2022-10-13T19:06:05.381Z,17.10
2022-10-13T19:08:32.948Z,19.52
2022-10-13T19:11:00.233Z,17.45
2022-10-13T19:13:27.961Z,19.25
2022-10-13T19:16:01.848Z,14.73
2022-10-13T19:18:29.115Z,18.30
2022-10-13T19:20:56.255Z,17.67
2022-10-13T19:23:23.395Z,15.25
2022-10-13T19:25:50.512Z,15.95
2022-10-13T19:28:17.683Z,18.10
2022-10-13T19:30:44.926Z,17.45
2022-10-13T19:33:14.261Z,15.90
2022-10-13T19:35:43.182Z,14.48
2022-10-13T19:38:10.543Z,17.92
2022-10-13T19:40:42.538Z,15.03
2022-10-13T19:43:10.222Z,18.98
2022-10-13T19:45:44.082Z,17.25
2022-10-13T19:48:11.221Z,21.67
2022-10-13T19:50:38.302Z,18.05
2022-10-13T19:53:05.344Z,21.00
2022-10-13T19:55:37.993Z,16.88
2022-10-13T19:58:05.077Z,17.23
2022-10-13T20:00:32.535Z,18.95
2022-10-13T20:02:59.744Z,18.10
2022-10-13T20:05:27.139Z,16.13
2022-10-13T20:07:54.683Z,15.77
2022-10-13T20:10:22.013Z,16.58
2022-10-13T20:12:49.054Z,17.35
2022-10-13T20:15:28.815Z,17.85
2022-10-13T20:17:56.177Z,15.87
2022-10-13T20:20:23.330Z,17.60
2022-10-13T20:22:53.033Z,17.58
2022-10-13T20:25:20.181Z,15.55
2022-10-13T20:27:47.237Z,17.73
2022-10-13T20:30:14.433Z,21.53
2022-10-13T20:32:41.658Z,17.65
2022-10-13T20:35:08.832Z,17.02
2022-10-13T20:37:35.970Z,14.45
2022-10-13T20:40:12.790Z,15.25
2022-10-13T20:42:39.887Z,16.67
2022-10-13T20:45:07.427Z,14.98
2022-10-13T20:47:34.508Z,14.55
2022-10-13T20:50:01.615Z,14.98
2022-10-13T20:52:28.650Z,14.60
2022-10-13T20:54:55.698Z,13.10
2022-10-13T20:57:23.199Z,14.48
2022-10-13T20:59:50.426Z,14.18
2022-10-13T21:02:17.455Z,16.63
2022-10-13T21:04:44.538Z,15.32
2022-10-13T21:07:11.614Z,16.23
2022-10-13T21:09:38.738Z,13.52
2022-10-13T21:12:06.183Z,17.17
2022-10-13T21:14:33.244Z,17.73
2022-10-13T21:17:00.367Z,17.92
2022-10-13T21:19:29.273Z,19.43
2022-10-13T21:21:56.331Z,15.68
2022-10-13T21:24:23.361Z,16.98
2022-10-13T21:26:50.442Z,16.17
2022-10-13T21:29:17.532Z,20.08
2022-10-13T21:31:44.555Z,16.57
2022-10-13T21:34:12.319Z,14.52
2022-10-13T21:36:44.008Z,16.63
2022-10-13T21:39:11.267Z,19.42
2022-10-13T21:41:38.350Z,13.98
2022-10-13T21:44:05.415Z,15.33
2022-10-13T21:46:34.098Z,17.23
2022-10-13T21:49:03.002Z,17.80
2022-10-13T21:51:38.205Z,14.50
2022-10-13T21:54:07.767Z,18.35
2022-10-13T21:56:35.799Z,15.50
2022-10-13T21:59:03.754Z,13.88
2022-10-13T22:01:31.050Z,15.30
2022-10-13T22:03:59.648Z,15.10
2022-10-13T22:06:28.062Z,15.18
2022-10-13T22:08:56.638Z,15.13
2022-10-13T22:11:26.622Z,19.70
2022-10-13T22:13:56.036Z,15.60
2022-10-13T22:16:30.531Z,14.73
2022-10-13T22:18:58.069Z,18.10
2022-10-13T22:21:30.711Z,18.57
2022-10-13T22:23:59.908Z,16.27
2022-10-13T22:26:28.810Z,16.65
2022-10-13T22:28:59.725Z,17.42
2022-10-13T22:31:27.229Z,15.50
2022-10-13T22:33:54.852Z,15.30
2022-10-13T22:36:23.682Z,18.83
2022-10-13T22:38:52.271Z,17.83
2022-10-13T22:41:19.860Z,17.55
2022-10-13T22:43:52.236Z,18.02
2022-10-13T22:46:21.803Z,16.60
2022-10-13T22:48:48.967Z,18.55
2022-10-13T22:51:21.130Z,19.08
2022-10-13T22:53:49.024Z,16.85
2022-10-13T22:56:24.502Z,14.93
2022-10-13T22:58:53.237Z,20.47
2022-10-13T23:01:21.450Z,15.07
2022-10-13T23:03:50.341Z,15.18
2022-10-13T23:06:20.428Z,16.73
2022-10-13T23:08:47.713Z,17.58
2022-10-13T23:11:15.602Z,17.20
2022-10-13T23:13:43.602Z,15.10
2022-10-13T23:16:14.466Z,12.68
2022-10-13T23:18:41.743Z,15.95
2022-10-13T23:21:11.088Z,21.48
2022-10-13T23:23:38.185Z,14.27
2022-10-13T23:26:06.905Z,14.40
2022-10-13T23:28:34.475Z,16.63
2022-10-13T23:31:03.381Z,17.52
2022-10-13T23:33:30.625Z,17.15
2022-10-13T23:35:58.829Z,15.43
2022-10-13T23:38:26.836Z,13.07
2022-10-13T23:40:53.907Z,17.10
2022-10-13T23:43:21.319Z,17.88
2022-10-13T23:45:48.383Z,16.05
2022-10-13T23:48:15.470Z,13.30
2022-10-13T23:50:42.594Z,19.55
2022-10-13T23:53:09.968Z,13.90
2022-10-13T23:55:38.808Z,12.93
2022-10-13T23:58:05.964Z,14.05
